Terminal Aerodrome Forecast
Issued by NWS Albany, NY

Home | Current Version | Previous Version | Text Only | Print | Product List | Glossary On
Versions: 1 2 3 4 5 6 7 8 9 10 11 12 13
000
FTUS41 KALY 231400 AAA
TAFGFL
TAF AMD
KGFL 231401Z 2314/2412 35010KT 6SM -SHRA OVC025
     FM231600 34012G20KT P6SM -SHRA BKN030 OVC040
     FM240000 32012KT P6SM SCT030 BKN070
     FM240500 32010KT P6SM SCT030=

USA.gov is the U.S. government's official web portal to all federal, state and local government web resources and services.